Time;durP1;ratioP1;P1;durP2;ratioP2;P2;SDS_P1;SDS_P2;PMS_P1;PMS_P2;Temp;Humidity;BMP_temperature;BMP_pressure;BME280_temperature;BME280_humidity;BME280_pressure;Samples;Min_cycle;Max_cycle;Signal;HPM_P1;HPM_P2
2021/03/23 00:00:56;;;;;;;18.37;9.10;;;;;;;1.83;84.87;96948.97;5025034;28;20830;-76
2021/03/23 00:03:29;;;;;;;18.37;10.10;;;;;;;1.85;84.00;96948.91;4997918;28;20476;-76
2021/03/23 00:05:57;;;;;;;19.63;9.93;;;;;;;1.88;84.76;96951.31;4997034;28;20521;-76
2021/03/23 00:08:31;;;;;;;17.23;8.77;;;;;;;1.89;84.04;96953.81;4999475;28;20027;-76
2021/03/23 00:11:17;;;;;;;20.98;9.50;;;;;;;1.91;84.46;96953.69;5085147;28;21123;-76
2021/03/23 00:13:45;;;;;;;18.73;8.73;;;;;;;1.88;84.29;96959.09;4989762;28;20023;-77
2021/03/23 00:16:12;;;;;;;17.30;8.90;;;;;;;1.87;84.17;96954.81;5000143;28;20433;-76
2021/03/23 00:18:39;;;;;;;17.67;9.27;;;;;;;1.84;84.46;96955.81;5013283;28;20456;-77
2021/03/23 00:21:05;;;;;;;18.90;9.40;;;;;;;1.89;84.39;96961.59;5001314;28;20461;-76
2021/03/23 00:23:31;;;;;;;21.13;9.33;;;;;;;1.93;84.93;96959.66;4995815;28;20530;-76
2021/03/23 00:25:57;;;;;;;17.63;8.90;;;;;;;1.85;84.34;96957.50;5002155;28;20910;-76
2021/03/23 00:28:23;;;;;;;19.73;9.87;;;;;;;1.88;84.44;96966.88;5006098;28;20407;-76
2021/03/23 00:30:51;;;;;;;20.30;9.23;;;;;;;1.89;84.99;96955.56;4985562;28;20038;-76
2021/03/23 00:33:17;;;;;;;23.17;11.60;;;;;;;1.88;84.29;96957.34;4984032;28;20480;-76
2021/03/23 00:35:43;;;;;;;25.40;11.53;;;;;;;1.93;84.75;96958.81;5000766;28;20487;-77
2021/03/23 00:38:10;;;;;;;20.40;10.00;;;;;;;1.88;84.85;96956.50;4993936;28;20034;-76
2021/03/23 00:40:37;;;;;;;22.77;11.03;;;;;;;1.87;84.25;96953.03;4995820;28;20556;-76
2021/03/23 00:43:05;;;;;;;22.63;11.43;;;;;;;1.88;84.14;96956.50;4992506;28;20470;-76
2021/03/23 00:45:32;;;;;;;17.97;10.67;;;;;;;1.90;84.48;96957.22;5004291;28;20449;-77
2021/03/23 00:47:58;;;;;;;20.00;9.60;;;;;;;1.85;84.61;96954.09;5004763;28;20461;-77
2021/03/23 00:50:24;;;;;;;20.27;9.53;;;;;;;1.84;84.60;96954.97;4989533;28;20473;-77
2021/03/23 00:52:50;;;;;;;19.50;10.53;;;;;;;1.82;84.58;96951.66;5001745;28;20034;-76
2021/03/23 00:55:16;;;;;;;23.87;11.83;;;;;;;1.86;84.85;96956.56;5001485;28;20468;-76
2021/03/23 00:57:41;;;;;;;19.03;10.00;;;;;;;1.83;85.05;96950.72;5001982;28;20052;-76
2021/03/23 01:00:10;;;;;;;23.73;10.53;;;;;;;1.82;85.41;96949.06;5013788;28;20404;-76
2021/03/23 01:02:36;;;;;;;20.43;10.03;;;;;;;1.82;85.41;96951.66;4992859;28;20049;-77
2021/03/23 01:05:05;;;;;;;19.67;9.73;;;;;;;1.84;84.88;96947.19;4992871;28;20465;-76
2021/03/23 01:07:31;;;;;;;18.13;9.17;;;;;;;1.80;84.98;96949.13;5075645;28;20026;-76
2021/03/23 01:09:57;;;;;;;21.00;10.23;;;;;;;1.84;84.50;96950.63;4977215;28;20473;-76
2021/03/23 01:12:23;;;;;;;19.53;9.60;;;;;;;1.83;84.75;96945.53;5000479;28;20049;-75
2021/03/23 01:14:48;;;;;;;22.73;10.17;;;;;;;1.83;84.82;96946.38;5011140;28;20033;-76
2021/03/23 01:17:15;;;;;;;19.17;10.37;;;;;;;1.85;84.74;96947.13;5102528;27;20065;-78
2021/03/23 01:19:41;;;;;;;23.47;11.07;;;;;;;1.81;85.07;96945.63;5004782;28;20383;-76
2021/03/23 01:22:07;;;;;;;22.13;11.33;;;;;;;1.85;84.84;96941.13;5003143;28;20469;-76
2021/03/23 01:24:34;;;;;;;21.63;10.87;;;;;;;1.87;84.48;96947.03;5006856;28;20041;-76
2021/03/23 01:27:00;;;;;;;17.23;9.77;;;;;;;1.87;84.89;96949.63;5006145;28;20042;-76
2021/03/23 01:29:27;;;;;;;19.40;9.63;;;;;;;1.87;84.50;96952.22;4995591;28;20551;-75
2021/03/23 01:31:53;;;;;;;22.60;10.40;;;;;;;1.84;84.73;96948.03;4987749;28;20468;-77
2021/03/23 01:34:19;;;;;;;20.77;10.80;;;;;;;1.85;84.93;96948.91;4990686;28;20461;-76
2021/03/23 01:36:44;;;;;;;18.37;10.13;;;;;;;1.91;85.37;96945.91;5005106;28;20018;-75
2021/03/23 01:39:10;;;;;;;23.87;10.47;;;;;;;1.89;84.57;96942.59;5000970;28;20039;-76
2021/03/23 01:41:36;;;;;;;24.10;10.73;;;;;;;1.91;84.79;96951.09;5005294;28;20021;-76
2021/03/23 01:44:02;;;;;;;19.87;9.90;;;;;;;1.90;84.87;96946.84;4993906;28;20686;-77
2021/03/23 01:46:42;;;;;;;21.90;9.97;;;;;;;1.87;84.90;96944.44;5005211;28;20117;-76
2021/03/23 01:49:12;;;;;;;23.67;11.03;;;;;;;1.84;85.26;96934.22;4993993;28;21057;-76
2021/03/23 01:51:40;;;;;;;21.50;9.93;;;;;;;1.85;84.71;96930.75;5100613;27;20458;-76
2021/03/23 01:54:12;;;;;;;21.83;10.13;;;;;;;1.84;85.16;96934.22;4996742;28;20469;-76
2021/03/23 01:56:38;;;;;;;21.77;10.37;;;;;;;1.78;85.04;96935.44;5001312;28;20441;-76
2021/03/23 01:59:07;;;;;;;19.50;10.50;;;;;;;1.79;85.09;96942.28;4994387;28;20480;-76
2021/03/23 02:01:33;;;;;;;22.03;10.53;;;;;;;1.80;85.05;96930.97;4988423;28;20908;-76
2021/03/23 02:04:00;;;;;;;19.33;10.13;;;;;;;1.82;84.83;96938.69;5005022;28;20500;-76
2021/03/23 02:06:34;;;;;;;22.37;11.50;;;;;;;1.81;85.54;96939.59;4987584;28;20030;-77
2021/03/23 02:09:01;;;;;;;19.77;10.60;;;;;;;1.81;85.41;96926.63;4993159;28;20535;-76
2021/03/23 02:11:30;;;;;;;22.70;10.53;;;;;;;1.79;85.31;96936.28;5006521;28;20457;-76
2021/03/23 02:13:56;;;;;;;17.27;9.57;;;;;;;1.74;85.66;96922.72;5013434;28;20460;-76
2021/03/23 02:16:22;;;;;;;22.80;11.43;;;;;;;1.79;85.50;96925.91;5002736;28;20457;-76
2021/03/23 02:18:48;;;;;;;22.00;10.57;;;;;;;1.74;85.22;96923.56;4998156;28;20464;-77
2021/03/23 02:21:18;;;;;;;24.47;10.63;;;;;;;1.78;84.98;96930.25;4994046;28;20030;-76
2021/03/23 02:23:50;;;;;;;21.03;10.43;;;;;;;1.81;85.67;96931.81;5100626;27;20026;-76
2021/03/23 02:26:27;;;;;;;19.50;10.73;;;;;;;1.78;85.62;96930.25;5003066;28;20491;-76
2021/03/23 02:28:56;;;;;;;25.10;11.30;;;;;;;1.73;85.96;96927.06;5079129;28;20484;-77
2021/03/23 02:31:36;;;;;;;21.23;10.77;;;;;;;1.78;85.88;96930.25;5089724;28;20477;-76
2021/03/23 02:34:06;;;;;;;22.13;11.40;;;;;;;1.74;85.28;96927.91;5001056;28;20472;-76
2021/03/23 02:36:32;;;;;;;22.40;11.10;;;;;;;1.77;85.78;96933.75;4991579;28;20463;-76
2021/03/23 02:38:59;;;;;;;22.20;11.73;;;;;;;1.78;85.71;96929.44;5006964;28;20540;-76
2021/03/23 02:41:25;;;;;;;25.97;11.47;;;;;;;1.73;85.77;96934.03;4990349;28;20473;-77
2021/03/23 02:43:52;;;;;;;21.40;11.60;;;;;;;1.78;85.28;96932.84;5095348;28;20461;-78
2021/03/23 02:46:18;;;;;;;20.60;10.30;;;;;;;1.78;85.25;96934.63;4996444;28;20062;-77
2021/03/23 02:48:44;;;;;;;21.47;11.10;;;;;;;1.77;85.21;96930.31;5103117;27;20552;-76
2021/03/23 02:51:13;;;;;;;22.03;10.53;;;;;;;1.73;85.65;96936.63;5006494;28;21037;-75
2021/03/23 02:53:39;;;;;;;19.17;10.20;;;;;;;1.80;85.80;96930.97;4999357;28;20948;-76
2021/03/23 02:56:05;;;;;;;22.87;10.80;;;;;;;1.80;85.53;96932.75;4998187;28;20457;-76
2021/03/23 02:58:31;;;;;;;20.30;10.73;;;;;;;1.79;85.46;96933.69;5000809;28;21078;-76
2021/03/23 03:00:57;;;;;;;28.67;12.57;;;;;;;1.84;85.47;96934.22;4995104;28;20129;-76
2021/03/23 03:03:22;;;;;;;26.23;11.40;;;;;;;1.83;85.05;96928.22;4996772;28;20041;-76
2021/03/23 03:05:48;;;;;;;26.43;12.10;;;;;;;1.75;86.16;96927.00;4993791;28;20042;-76
2021/03/23 03:08:14;;;;;;;22.50;10.10;;;;;;;1.72;86.41;96932.38;5004229;28;20073;-76
2021/03/23 03:10:40;;;;;;;21.97;11.27;;;;;;;1.74;85.79;96930.50;5094037;28;20037;-76
2021/03/23 03:13:06;;;;;;;23.93;12.57;;;;;;;1.71;86.66;96928.06;4992707;28;20433;-76
2021/03/23 03:15:32;;;;;;;27.33;11.40;;;;;;;1.74;86.31;96926.16;4995883;28;20292;-76
2021/03/23 03:17:58;;;;;;;26.00;12.80;;;;;;;1.70;86.01;96924.66;5081808;28;20094;-76
2021/03/23 03:20:25;;;;;;;25.30;13.80;;;;;;;1.72;85.72;96928.00;4981493;28;20481;-76
2021/03/23 03:22:51;;;;;;;26.90;12.27;;;;;;;1.73;86.12;96927.06;5069655;28;20061;-76
2021/03/23 03:25:19;;;;;;;25.23;11.13;;;;;;;1.69;85.89;96919.56;4993229;28;20461;-76
2021/03/23 03:27:45;;;;;;;23.30;12.13;;;;;;;1.69;86.23;96925.59;4993092;28;20026;-76
2021/03/23 03:30:32;;;;;;;26.37;12.63;;;;;;;1.70;86.23;96923.81;5077155;28;20477;-76
2021/03/23 03:32:59;;;;;;;23.43;12.07;;;;;;;1.63;86.79;96918.97;5001189;28;20469;-76
2021/03/23 03:35:34;;;;;;;28.60;13.63;;;;;;;1.62;87.01;96919.91;5000171;28;20457;-76
2021/03/23 03:38:01;;;;;;;25.70;12.20;;;;;;;1.65;86.91;96924.09;4998526;28;20468;-76
2021/03/23 03:40:32;;;;;;;30.10;13.87;;;;;;;1.68;86.53;96917.88;5000878;28;20585;-76
2021/03/23 03:42:58;;;;;;;28.30;14.97;;;;;;;1.64;86.36;96918.09;4988696;28;20858;-76
2021/03/23 03:45:26;;;;;;;26.30;13.27;;;;;;;1.62;86.87;96924.28;4996155;28;20533;-76
2021/03/23 03:47:56;;;;;;;26.37;13.50;;;;;;;1.65;86.91;96929.28;4982569;28;20030;-77
2021/03/23 03:50:25;;;;;;;28.90;15.43;;;;;;;1.61;87.03;96925.16;4996677;28;20548;-77
2021/03/23 03:52:52;;;;;;;26.53;13.93;;;;;;;1.59;86.95;96933.06;5095387;27;20467;-76
2021/03/23 03:55:21;;;;;;;25.77;14.87;;;;;;;1.58;87.05;96925.38;5000186;28;20476;-77
2021/03/23 03:57:47;;;;;;;21.87;12.63;;;;;;;1.63;86.52;96931.94;5098481;28;20445;-79
2021/03/23 04:00:17;;;;;;;29.23;14.70;;;;;;;1.60;86.61;96929.53;5001835;28;20481;-76
2021/03/23 04:02:42;;;;;;;29.03;13.23;;;;;;;1.60;87.08;96926.94;4988081;28;20503;-77
2021/03/23 04:05:16;;;;;;;30.40;15.90;;;;;;;1.58;87.12;96925.38;4998084;28;20557;-77
2021/03/23 04:07:41;;;;;;;26.35;13.27;;;;;;;1.60;86.55;96937.31;5005026;28;20113;-77
2021/03/23 04:10:08;;;;;;;27.63;14.27;;;;;;;1.63;87.28;96936.31;4995443;28;20179;-76
2021/03/23 04:12:33;;;;;;;25.50;12.90;;;;;;;1.63;86.87;96928.53;5004602;28;20026;-76
2021/03/23 04:14:59;;;;;;;27.87;13.13;;;;;;;1.65;87.32;96932.72;4990363;28;20473;-76
2021/03/23 04:17:25;;;;;;;25.97;14.33;;;;;;;1.70;86.73;96939.38;4992694;28;20566;-77
2021/03/23 04:19:50;;;;;;;25.60;12.90;;;;;;;1.67;86.59;96942.16;4984227;28;20034;-78
2021/03/23 04:22:16;;;;;;;29.43;14.30;;;;;;;1.68;87.06;96943.81;4994021;28;20041;-76
2021/03/23 04:24:42;;;;;;;28.20;14.33;;;;;;;1.67;87.18;96945.56;5018687;28;20111;-76
2021/03/23 04:27:08;;;;;;;33.53;15.27;;;;;;;1.65;86.87;96945.66;5005350;28;20028;-77
2021/03/23 04:29:33;;;;;;;29.10;15.20;;;;;;;1.61;87.30;96951.97;4995478;28;20038;-76
2021/03/23 04:31:59;;;;;;;27.07;14.13;;;;;;;1.63;87.20;96951.84;5000607;28;20453;-76
2021/03/23 04:34:25;;;;;;;26.37;13.00;;;;;;;1.66;87.15;96946.50;4992500;28;20526;-76
2021/03/23 04:36:50;;;;;;;30.00;15.13;;;;;;;1.62;86.99;96948.44;5083726;27;20088;-76
2021/03/23 04:39:16;;;;;;;28.10;13.00;;;;;;;1.63;87.49;96951.84;4993370;28;20036;-77
2021/03/23 04:41:42;;;;;;;26.87;13.30;;;;;;;1.67;87.09;96952.53;4998824;28;20026;-77
2021/03/23 04:44:08;;;;;;;31.80;14.30;;;;;;;1.63;87.35;96957.88;4997661;28;20056;-78
2021/03/23 04:46:34;;;;;;;26.83;13.90;;;;;;;1.65;87.55;96955.22;5014084;28;20038;-77
2021/03/23 04:49:00;;;;;;;30.37;16.07;;;;;;;1.68;86.74;96959.38;5102216;27;20550;-76
2021/03/23 04:51:29;;;;;;;29.70;14.40;;;;;;;1.61;87.34;96954.56;5012464;28;20452;-76
2021/03/23 04:54:13;;;;;;;30.67;14.10;;;;;;;1.61;87.32;96959.75;4992764;28;20040;-76
2021/03/23 04:56:42;;;;;;;29.92;15.10;;;;;;;1.66;87.66;96967.25;5000543;28;20500;-77
2021/03/23 04:59:08;;;;;;;33.27;13.87;;;;;;;1.67;87.25;96965.47;4995052;28;20026;-76
2021/03/23 05:01:36;;;;;;;29.87;14.40;;;;;;;1.71;87.33;96969.56;4993500;28;20458;-78
2021/03/23 05:04:05;;;;;;;28.83;13.97;;;;;;;1.69;87.52;96972.25;5003597;28;20457;-76
2021/03/23 05:06:31;;;;;;;28.33;13.63;;;;;;;1.63;87.87;96973.44;4994359;28;20470;-77
2021/03/23 05:08:57;;;;;;;33.13;15.07;;;;;;;1.70;87.51;96967.91;5000430;28;20476;-77
2021/03/23 05:11:29;;;;;;;27.90;14.33;;;;;;;1.68;87.16;96972.31;5003036;28;20793;-76
2021/03/23 05:13:56;;;;;;;26.10;13.63;;;;;;;1.63;87.95;96970.00;4997442;28;20743;-77
2021/03/23 05:16:23;;;;;;;31.33;14.17;;;;;;;1.64;87.15;96977.72;4995006;28;20989;-77
2021/03/23 05:18:50;;;;;;;29.97;14.83;;;;;;;1.66;87.76;96977.63;5004039;28;20457;-76
2021/03/23 05:21:16;;;;;;;28.67;13.50;;;;;;;1.63;88.34;96978.63;4985557;28;20469;-77
2021/03/23 05:23:42;;;;;;;25.53;14.20;;;;;;;1.65;87.56;96966.41;5012797;28;20465;-76
2021/03/23 05:26:08;;;;;;;25.63;13.37;;;;;;;1.70;88.15;96981.69;4995543;28;20478;-76
2021/03/23 05:28:34;;;;;;;30.73;15.63;;;;;;;1.72;87.78;96981.63;4976417;28;20545;-76
2021/03/23 05:31:00;;;;;;;28.50;14.47;;;;;;;1.67;87.96;96981.03;5000385;28;20443;-77
2021/03/23 05:33:27;;;;;;;29.63;15.57;;;;;;;1.74;87.66;96974.59;4993938;28;20458;-78
2021/03/23 05:35:56;;;;;;;30.77;15.37;;;;;;;1.69;88.11;96976.63;4999167;28;20554;-76
2021/03/23 05:38:23;;;;;;;34.93;15.67;;;;;;;1.72;87.93;96981.63;4974480;28;20904;-76
2021/03/23 05:40:54;;;;;;;30.77;15.87;;;;;;;1.75;87.61;96977.09;4984898;28;20623;-76
2021/03/23 05:43:50;;;;;;;29.00;14.87;;;;;;;1.80;87.55;96975.06;4971750;28;20487;-76
2021/03/23 05:46:19;;;;;;;28.23;13.63;;;;;;;1.79;87.45;96982.94;4994714;28;20467;-77
2021/03/23 05:49:08;;;;;;;31.90;15.47;;;;;;;1.78;87.61;96982.13;4988995;28;20469;-76
2021/03/23 05:51:48;;;;;;;32.00;15.57;;;;;;;1.78;87.78;96979.53;4990457;28;20476;-77
2021/03/23 05:54:23;;;;;;;30.17;16.43;;;;;;;1.71;87.69;96985.13;4983792;28;20453;-77
2021/03/23 05:56:53;;;;;;;33.67;17.07;;;;;;;1.81;88.21;96986.28;5009755;28;20437;-77
2021/03/23 05:59:44;;;;;;;28.80;13.90;;;;;;;1.78;87.82;96992.50;4996338;28;20462;-77
2021/03/23 06:02:45;;;;;;;33.53;15.83;;;;;;;1.84;87.74;96988.69;4989104;28;20446;-76
2021/03/23 06:05:27;;;;;;;31.70;14.80;;;;;;;1.88;87.48;96992.81;5046965;28;20461;-79
2021/03/23 06:07:53;;;;;;;33.23;14.97;;;;;;;1.88;87.41;96998.00;5003620;28;20873;-78
2021/03/23 06:10:21;;;;;;;31.47;15.80;;;;;;;1.83;88.00;96995.66;5006091;28;20489;-77
2021/03/23 06:13:16;;;;;;;31.53;16.73;;;;;;;1.91;87.38;97002.97;4970233;28;20026;-76
2021/03/23 06:16:10;;;;;;;33.93;16.07;;;;;;;1.92;87.30;97014.22;4976002;28;20462;-76
2021/03/23 06:19:01;;;;;;;29.58;15.43;;;;;;;1.93;87.46;97015.88;4999580;28;20873;-76
2021/03/23 06:21:42;;;;;;;31.70;16.13;;;;;;;1.95;87.49;97020.06;4977116;28;20312;-77
2021/03/23 06:24:21;;;;;;;33.27;17.57;;;;;;;1.94;88.02;97022.72;5082629;28;20458;-77
2021/03/23 06:27:08;;;;;;;30.03;14.63;;;;;;;2.03;87.34;97025.66;4998824;28;20464;-79
2021/03/23 06:29:52;;;;;;;30.60;15.43;;;;;;;2.02;87.25;97031.75;4991360;28;20509;-78
2021/03/23 06:32:37;;;;;;;34.87;16.87;;;;;;;2.04;87.08;97029.91;5012524;28;20987;-78
2021/03/23 06:35:05;;;;;;;32.37;16.17;;;;;;;2.13;86.80;97031.97;5077217;28;20480;-78
2021/03/23 06:37:36;;;;;;;29.67;16.60;;;;;;;2.17;86.87;97037.81;4992461;28;20458;-78
2021/03/23 06:40:16;;;;;;;31.33;15.90;;;;;;;2.14;87.16;97035.41;4982321;28;20506;-77
2021/03/23 06:42:48;;;;;;;30.23;15.80;;;;;;;2.19;86.82;97042.94;5078004;28;20465;-78
2021/03/23 06:45:25;;;;;;;27.47;15.37;;;;;;;2.29;86.83;97049.28;4990907;28;20438;-78
2021/03/23 06:47:51;;;;;;;29.23;16.10;;;;;;;2.28;86.56;97042.41;5066525;28;20477;-77
2021/03/23 06:50:25;;;;;;;31.77;15.83;;;;;;;2.39;85.76;97041.81;4985079;28;20478;-77
2021/03/23 06:53:09;;;;;;;33.87;17.17;;;;;;;2.43;85.54;97040.69;4988243;28;20046;-77
2021/03/23 06:55:37;;;;;;;31.13;15.87;;;;;;;2.39;85.96;97049.59;4989449;28;20846;-78
2021/03/23 06:58:20;;;;;;;34.00;18.67;;;;;;;2.42;85.08;97047.66;4997908;28;20456;-78
2021/03/23 07:01:10;;;;;;;36.53;16.73;;;;;;;2.46;85.67;97045.72;4995187;28;20484;-77
2021/03/23 07:03:36;;;;;;;33.67;17.27;;;;;;;2.49;85.98;97046.34;4999338;28;20037;-77
2021/03/23 07:06:16;;;;;;;29.40;17.63;;;;;;;2.71;85.23;97058.91;4992182;28;20461;-77
2021/03/23 07:08:42;;;;;;;33.27;16.57;;;;;;;2.73;84.74;97061.44;4989804;28;20482;-77
2021/03/23 07:11:09;;;;;;;32.40;17.20;;;;;;;2.76;83.80;97054.28;4991374;28;21013;-77
2021/03/23 07:13:39;;;;;;;28.43;15.60;;;;;;;2.76;84.18;97053.47;4994206;28;20449;-77
2021/03/23 07:16:10;;;;;;;30.03;17.03;;;;;;;2.76;84.16;97058.66;4999296;28;20806;-77
2021/03/23 07:18:42;;;;;;;31.33;16.23;;;;;;;2.79;84.60;97054.09;4996282;28;20466;-77
2021/03/23 07:21:26;;;;;;;33.20;16.37;;;;;;;2.83;83.93;97062.56;5008343;28;20465;-77
2021/03/23 07:24:05;;;;;;;28.73;15.97;;;;;;;2.91;84.40;97056.88;4994213;28;20512;-77
2021/03/23 07:26:35;;;;;;;31.37;15.67;;;;;;;2.86;84.42;97054.59;5076683;28;20483;-77
2021/03/23 07:29:29;;;;;;;31.30;15.73;;;;;;;2.97;83.12;97054.75;4996665;28;20504;-77
2021/03/23 07:32:23;;;;;;;29.70;16.42;;;;;;;3.08;83.29;97056.72;4987519;28;20477;-77
2021/03/23 07:34:55;;;;;;;33.87;17.13;;;;;;;3.16;83.67;97056.25;4985732;28;20026;-78
2021/03/23 07:37:50;;;;;;;36.03;17.87;;;;;;;3.24;82.96;97067.00;4988703;28;20068;-78
2021/03/23 07:40:29;;;;;;;28.53;15.17;;;;;;;3.27;83.26;97065.06;5019975;28;20049;-79
2021/03/23 07:42:55;;;;;;;36.27;19.23;;;;;;;3.36;82.44;97066.28;5010299;28;20453;-80
2021/03/23 07:45:27;;;;;;;49.77;24.53;;;;;;;3.34;82.44;97070.72;4992914;28;20590;-78
2021/03/23 07:47:56;;;;;;;24.80;13.52;;;;;;;3.28;82.79;97060.69;5002006;28;20041;-79
2021/03/23 07:50:34;;;;;;;29.23;17.40;;;;;;;3.41;82.74;97060.78;5013135;28;20107;-78
2021/03/23 07:53:19;;;;;;;32.73;17.07;;;;;;;3.56;80.98;97067.66;5020188;28;20022;-78
2021/03/23 07:55:49;;;;;;;33.20;18.10;;;;;;;3.28;82.05;97077.13;5005260;28;20089;-78
2021/03/23 07:58:47;;;;;;;33.43;16.80;;;;;;;3.42;82.56;97078.03;5026659;28;20459;-78
2021/03/23 08:01:37;;;;;;;34.13;17.43;;;;;;;3.42;82.49;97083.25;4978398;28;20504;-80
2021/03/23 08:04:07;;;;;;;34.83;17.77;;;;;;;3.56;82.16;97069.41;4998467;28;20054;-78
2021/03/23 08:06:42;;;;;;;40.97;17.47;;;;;;;3.60;82.43;97076.09;5005279;28;20060;-78
2021/03/23 08:09:40;;;;;;;32.27;16.23;;;;;;;3.41;82.28;97082.41;5000861;28;20047;-79
2021/03/23 08:12:44;;;;;;;35.43;17.60;;;;;;;3.59;81.06;97084.81;4995976;28;20030;-79
2021/03/23 08:15:45;;;;;;;30.60;16.77;;;;;;;3.44;82.56;97077.03;5102771;28;20042;-80
2021/03/23 08:18:41;;;;;;;35.43;17.67;;;;;;;3.65;82.27;97074.84;5020899;28;20465;-81
2021/03/23 08:21:35;;;;;;;31.43;16.83;;;;;;;3.60;81.51;97081.28;5008054;28;20034;-79
2021/03/23 08:24:13;;;;;;;45.05;18.50;;;;;;;3.64;81.90;97081.00;5019665;28;20422;-79
2021/03/23 08:27:09;;;;;;;33.53;17.70;;;;;;;3.71;81.42;97079.69;5010110;28;20042;-78
2021/03/23 08:30:11;;;;;;;32.90;17.50;;;;;;;3.98;81.22;97082.28;4995348;28;20034;-80
2021/03/23 08:32:46;;;;;;;31.13;16.47;;;;;;;3.98;80.67;97077.09;4996358;28;20041;-80
2021/03/23 08:35:28;;;;;;;32.90;17.43;;;;;;;3.89;80.09;97076.84;4985011;28;20414;-78
2021/03/23 08:38:08;;;;;;;30.00;16.67;;;;;;;3.88;80.91;97077.78;5005362;28;20087;-79
2021/03/23 08:40:59;;;;;;;32.00;16.50;;;;;;;3.81;81.47;97085.13;5005254;28;20031;-79
2021/03/23 08:43:36;;;;;;;32.43;16.33;;;;;;;4.01;80.34;97096.91;5032312;28;20026;-79
2021/03/23 08:46:06;;;;;;;31.97;16.90;;;;;;;4.06;79.51;97088.78;5006466;28;20062;-80
2021/03/23 08:48:48;;;;;;;31.43;17.67;;;;;;;4.05;79.69;97082.75;5023092;28;20039;-80
2021/03/23 08:51:19;;;;;;;31.87;17.60;;;;;;;3.91;80.25;97082.78;5013018;28;20030;-80
2021/03/23 08:53:54;;;;;;;34.50;17.10;;;;;;;4.13;79.32;97096.13;4993568;28;20133;-81
2021/03/23 08:56:41;;;;;;;30.03;16.53;;;;;;;4.12;80.78;97097.03;5005313;28;20064;-80
2021/03/23 08:59:50;;;;;;;32.30;16.23;;;;;;;4.12;80.73;97093.59;5015349;28;20042;-78
2021/03/23 09:02:16;;;;;;;25.77;15.37;;;;;;;4.09;79.81;97096.41;5030928;28;20099;-80
2021/03/23 09:04:59;;;;;;;31.03;17.20;;;;;;;4.16;79.62;97090.72;5008272;28;20045;-78
2021/03/23 09:07:33;;;;;;;30.43;15.63;;;;;;;4.30;79.11;97100.25;5029102;28;20520;-79
2021/03/23 09:10:43;;;;;;;29.90;16.60;;;;;;;4.30;79.22;97107.22;5019877;28;20117;-77
2021/03/23 09:13:22;;;;;;;30.30;16.50;;;;;;;4.18;79.15;97098.41;4999430;28;20507;-80
2021/03/23 09:15:53;;;;;;;31.20;15.53;;;;;;;4.18;79.04;97094.03;4999868;28;20103;-79
2021/03/23 09:18:20;;;;;;;26.30;15.30;;;;;;;4.27;78.82;97095.22;4995644;28;20061;-81
2021/03/23 09:20:46;;;;;;;28.47;15.73;;;;;;;4.38;78.58;97095.34;5009879;28;20368;-78
2021/03/23 09:23:22;;;;;;;26.20;15.00;;;;;;;4.51;77.49;97094.56;5019405;28;20091;-78
2021/03/23 09:25:57;;;;;;;26.33;15.13;;;;;;;4.54;77.24;97100.41;4988926;28;20034;-79
2021/03/23 09:28:29;;;;;;;24.60;13.57;;;;;;;4.67;76.14;97096.06;4987212;28;20336;-79
2021/03/23 09:30:59;;;;;;;21.17;12.00;;;;;;;4.57;75.26;97094.16;5013704;28;20612;-80
2021/03/23 09:33:24;;;;;;;22.10;12.33;;;;;;;4.98;74.63;97096.63;5006519;28;20034;-81
2021/03/23 09:36:08;;;;;;;25.23;13.27;;;;;;;4.91;75.38;97093.59;5002387;28;20028;-79
2021/03/23 09:38:48;;;;;;;21.73;12.57;;;;;;;4.94;74.28;97093.38;5010828;28;20057;-80
2021/03/23 09:41:20;;;;;;;25.93;14.63;;;;;;;4.94;74.34;97082.97;4992001;28;20094;-79
2021/03/23 09:43:53;;;;;;;17.93;10.63;;;;;;;4.94;72.83;97088.16;5008032;28;20034;-77
2021/03/23 09:46:24;;;;;;;22.80;11.17;;;;;;;5.23;72.28;97082.75;4990368;28;20455;-77
2021/03/23 09:49:28;;;;;;;17.13;9.97;;;;;;;5.02;72.01;97092.84;4990453;28;20030;-77
2021/03/23 09:52:05;;;;;;;18.67;10.20;;;;;;;4.77;71.32;97090.25;5021501;28;20052;-78
2021/03/23 09:54:54;;;;;;;19.37;9.73;;;;;;;4.86;71.41;97087.88;5007748;28;20087;-78
2021/03/23 09:57:24;;;;;;;18.13;10.30;;;;;;;4.75;72.90;97092.09;5010794;28;20037;-78
2021/03/23 09:59:57;;;;;;;21.00;11.73;;;;;;;4.81;72.31;97084.72;4999997;28;20038;-79
2021/03/23 10:02:29;;;;;;;19.15;10.98;;;;;;;4.80;72.94;97095.25;5016155;28;20022;-78
2021/03/23 10:04:56;;;;;;;19.40;10.97;;;;;;;4.62;73.03;97086.88;4992915;28;20042;-78
2021/03/23 10:07:32;;;;;;;23.10;11.77;;;;;;;4.61;73.75;97087.81;4984557;28;20045;-78
2021/03/23 10:10:09;;;;;;;20.43;11.50;;;;;;;4.62;74.30;97084.25;5021267;28;20135;-78
2021/03/23 10:12:34;;;;;;;22.30;11.83;;;;;;;4.62;74.31;97089.47;4978403;28;20109;-78
2021/03/23 10:15:32;;;;;;;23.40;12.80;;;;;;;4.51;75.20;97086.75;5007098;28;20052;-78
2021/03/23 10:18:30;;;;;;;23.33;12.33;;;;;;;4.55;74.57;97078.63;4989682;28;20548;-78
2021/03/23 10:21:12;;;;;;;24.47;12.77;;;;;;;4.52;75.63;97088.41;4986154;28;20033;-79
2021/03/23 10:23:48;;;;;;;23.27;13.17;;;;;;;4.66;74.26;97088.31;4995793;28;20046;-79
2021/03/23 10:26:14;;;;;;;27.97;14.47;;;;;;;4.74;73.88;97080.84;5012221;28;20044;-78
2021/03/23 10:28:48;;;;;;;23.83;13.57;;;;;;;4.87;73.40;97084.31;5007660;28;20030;-78
2021/03/23 10:31:28;;;;;;;19.73;11.17;;;;;;;4.55;73.42;97081.22;5010631;28;20033;-78
2021/03/23 10:34:04;;;;;;;24.77;13.43;;;;;;;4.79;73.17;97081.38;5009540;28;20041;-78
2021/03/23 10:36:43;;;;;;;21.43;12.27;;;;;;;4.81;73.55;97082.09;5026076;28;20125;-79
2021/03/23 10:39:32;;;;;;;21.57;12.20;;;;;;;5.16;72.32;97081.47;5002894;28;20034;-79
2021/03/23 10:42:00;;;;;;;21.13;11.90;;;;;;;5.13;72.73;97081.69;5073637;28;20122;-78
2021/03/23 10:44:30;;;;;;;19.80;11.27;;;;;;;5.16;71.32;97081.47;5092747;28;20061;-78
2021/03/23 10:46:58;;;;;;;20.60;10.53;;;;;;;5.05;71.10;97078.78;5000794;28;20054;-77
2021/03/23 10:49:32;;;;;;;17.30;9.63;;;;;;;4.96;71.51;97086.31;4998856;28;20120;-77
2021/03/23 10:52:22;;;;;;;16.53;9.43;;;;;;;5.18;70.62;97079.63;5069644;28;20038;-77
2021/03/23 10:54:47;;;;;;;16.50;9.87;;;;;;;5.29;69.70;97082.31;4985263;28;20110;-78
2021/03/23 10:57:30;;;;;;;20.27;10.73;;;;;;;5.39;69.25;97082.50;4989089;28;20083;-81
2021/03/23 11:00:17;;;;;;;17.10;9.83;;;;;;;5.25;70.04;97080.88;4999001;28;20030;-79
2021/03/23 11:02:42;;;;;;;23.83;10.50;;;;;;;5.35;69.52;97074.06;5008605;28;20476;-78
2021/03/23 11:05:14;;;;;;;19.03;10.63;;;;;;;5.41;70.64;97072.81;5004726;28;20026;-78
2021/03/23 11:07:59;;;;;;;16.93;10.70;;;;;;;5.37;69.50;97076.59;5084019;28;20030;-78
2021/03/23 11:10:32;;;;;;;19.30;10.70;;;;;;;5.36;70.25;97069.69;4975102;28;20035;-78
2021/03/23 11:12:59;;;;;;;18.50;10.52;;;;;;;5.55;69.00;97064.03;4991946;28;20136;-78
2021/03/23 11:15:31;;;;;;;19.03;10.37;;;;;;;5.60;69.60;97072.34;4998773;28;20187;-78
2021/03/23 11:18:01;;;;;;;22.10;11.03;;;;;;;5.78;69.16;97068.44;4987958;28;20129;-78
2021/03/23 11:20:40;;;;;;;18.90;10.73;;;;;;;5.91;68.15;97068.41;5076672;28;20033;-78
2021/03/23 11:23:40;;;;;;;16.67;9.73;;;;;;;6.07;66.96;97061.19;5085438;28;20102;-77
2021/03/23 11:26:08;;;;;;;19.90;10.63;;;;;;;6.23;66.30;97062.66;4989484;28;20034;-78
2021/03/23 11:28:34;;;;;;;16.57;9.87;;;;;;;6.23;64.84;97063.50;4992867;28;20050;-77
2021/03/23 11:31:01;;;;;;;19.10;9.60;;;;;;;6.46;63.99;97060.97;4978113;28;20046;-78
2021/03/23 11:33:29;;;;;;;20.17;11.30;;;;;;;6.94;64.49;97061.72;4989442;28;20053;-78
2021/03/23 11:35:55;;;;;;;14.83;8.50;;;;;;;7.40;61.54;97054.72;4992802;28;20049;-78
2021/03/23 11:38:21;;;;;;;13.17;7.23;;;;;;;7.40;60.13;97060.78;4999742;28;20105;-78
2021/03/23 11:40:49;;;;;;;15.53;8.00;;;;;;;7.28;59.69;97051.28;5028623;28;20032;-78
2021/03/23 11:43:46;;;;;;;15.17;7.87;;;;;;;7.21;60.11;97061.41;5018964;28;20021;-78
2021/03/23 11:46:26;;;;;;;13.77;8.10;;;;;;;6.95;60.01;97050.31;4972277;28;20125;-78
2021/03/23 11:49:07;;;;;;;14.73;7.93;;;;;;;6.69;62.44;97059.28;4988683;28;20073;-78
2021/03/23 11:51:35;;;;;;;16.43;8.63;;;;;;;6.62;62.58;97064.13;4994768;28;20492;-78
2021/03/23 11:54:01;;;;;;;17.07;9.47;;;;;;;6.40;63.37;97053.59;4993012;28;20037;-77